Time;durP1;ratioP1;P1;durP2;ratioP2;P2;SDS_P1;SDS_P2;PMS_P1;PMS_P2;Temp;Humidity;BMP_temperature;BMP_pressure;BME280_temperature;BME280_humidity;BME280_pressure;Samples;Min_cycle;Max_cycle;Signal;HPM_P1;HPM_P2
2021/09/18 00:01:39;;;;;;;0.00;0.00;;;18.10;99.90;;;;;;4973562;28;20023;-77
2021/09/18 00:04:05;;;;;;;0.32;0.32;;;18.10;99.90;;;;;;4975159;28;20030;-77
2021/09/18 00:06:32;;;;;;;0.80;0.10;;;18.10;99.90;;;;;;4975229;28;20029;-77
2021/09/18 00:08:58;;;;;;;4.85;1.55;;;18.10;99.90;;;;;;4974977;28;20142;-77
2021/09/18 00:11:24;;;;;;;0.28;0.28;;;18.10;99.90;;;;;;4974769;28;20529;-77
2021/09/18 00:13:50;;;;;;;0.60;0.30;;;18.10;99.90;;;;;;4974872;28;20027;-78
2021/09/18 00:16:15;;;;;;;0.00;0.00;;;18.10;99.90;;;;;;4974417;28;20034;-77
2021/09/18 00:18:41;;;;;;;0.00;0.00;;;18.10;99.90;;;;;;4974894;28;20033;-77
2021/09/18 00:21:07;;;;;;;1.02;0.52;;;18.10;99.90;;;;;;4974733;28;20035;-78
2021/09/18 00:23:32;;;;;;;0.00;0.00;;;18.00;99.90;;;;;;4974747;28;20033;-77
2021/09/18 00:25:58;;;;;;;0.03;0.03;;;17.90;99.90;;;;;;4974622;28;20072;-77
2021/09/18 00:28:24;;;;;;;0.00;0.00;;;17.90;99.90;;;;;;4974658;28;20038;-78
2021/09/18 00:30:50;;;;;;;0.00;0.00;;;17.90;99.90;;;;;;4974751;28;20031;-77
2021/09/18 00:33:16;;;;;;;0.10;0.10;;;17.80;99.90;;;;;;4974600;28;20049;-77
2021/09/18 00:35:41;;;;;;;0.52;0.52;;;17.70;99.90;;;;;;4973161;28;20034;-78
2021/09/18 00:38:07;;;;;;;0.03;0.03;;;17.70;99.90;;;;;;4974360;28;20114;-78
2021/09/18 00:40:33;;;;;;;0.17;0.10;;;17.70;99.90;;;;;;4974516;28;20027;-77
2021/09/18 00:42:58;;;;;;;2.10;0.80;;;17.60;99.90;;;;;;4973315;28;20037;-77
2021/09/18 00:45:24;;;;;;;0.35;0.25;;;17.60;99.90;;;;;;4974245;28;20054;-78
2021/09/18 00:47:50;;;;;;;0.73;0.57;;;17.60;99.90;;;;;;4973849;28;20582;-78
2021/09/18 00:50:15;;;;;;;0.98;0.63;;;17.60;99.90;;;;;;4972165;28;20033;-78
2021/09/18 00:52:41;;;;;;;0.08;0.08;;;17.60;99.90;;;;;;4974361;28;20033;-77
2021/09/18 00:55:08;;;;;;;0.43;0.30;;;17.50;99.90;;;;;;4974292;28;20031;-78
2021/09/18 00:57:34;;;;;;;0.22;0.22;;;17.60;99.90;;;;;;4974198;28;20114;-77
2021/09/18 01:00:03;;;;;;;0.20;0.20;;;17.60;99.90;;;;;;4974304;28;20074;-77
2021/09/18 01:02:30;;;;;;;0.30;0.30;;;17.50;99.90;;;;;;4974228;28;20133;-77
2021/09/18 01:04:56;;;;;;;0.08;0.08;;;17.50;99.90;;;;;;4974452;28;20023;-77
2021/09/18 01:07:22;;;;;;;0.17;0.17;;;17.50;99.90;;;;;;4972982;28;20122;-77
2021/09/18 01:09:49;;;;;;;0.00;0.00;;;17.50;99.90;;;;;;4973400;28;20027;-78
2021/09/18 01:12:14;;;;;;;0.35;0.35;;;17.50;99.90;;;;;;4974394;28;20110;-77
2021/09/18 01:14:48;;;;;;;0.10;0.10;;;17.50;99.90;;;;;;4973975;28;20109;-77
2021/09/18 01:17:15;;;;;;;0.98;0.77;;;17.50;99.90;;;;;;4973798;28;20058;-77
2021/09/18 01:19:41;;;;;;;0.15;0.15;;;17.50;99.90;;;;;;4974035;28;20485;-77
2021/09/18 01:22:07;;;;;;;0.45;0.20;;;17.50;99.90;;;;;;4972708;28;20109;-78
2021/09/18 01:24:34;;;;;;;0.10;0.10;;;17.50;99.90;;;;;;4973784;28;20058;-78
2021/09/18 01:27:00;;;;;;;0.55;0.55;;;17.50;99.90;;;;;;4973879;28;20129;-77
2021/09/18 01:29:26;;;;;;;6.85;0.45;;;17.50;99.90;;;;;;4973886;28;20515;-77
2021/09/18 01:31:52;;;;;;;0.10;0.10;;;17.50;99.90;;;;;;4973862;28;20058;-77
2021/09/18 01:34:19;;;;;;;0.10;0.10;;;17.40;99.90;;;;;;4972308;28;20058;-78
2021/09/18 01:36:46;;;;;;;8.98;0.40;;;17.40;99.90;;;;;;4973871;28;20027;-78
2021/09/18 01:39:13;;;;;;;0.65;0.45;;;17.30;99.90;;;;;;4973946;28;20027;-77
2021/09/18 01:41:41;;;;;;;0.15;0.15;;;17.30;99.90;;;;;;4973759;28;20026;-77
2021/09/18 01:44:06;;;;;;;0.05;0.05;;;17.30;99.90;;;;;;4973604;28;20039;-77
2021/09/18 01:46:32;;;;;;;0.05;0.05;;;17.30;99.90;;;;;;4973398;28;20073;-77
2021/09/18 01:48:58;;;;;;;1.17;0.52;;;17.30;99.90;;;;;;4973354;28;20045;-77
2021/09/18 01:51:24;;;;;;;1.33;0.75;;;17.30;99.90;;;;;;4973548;28;20033;-77
2021/09/18 01:53:50;;;;;;;0.13;0.13;;;17.40;99.90;;;;;;4973780;28;20062;-77
2021/09/18 01:56:16;;;;;;;0.57;0.57;;;17.30;99.90;;;;;;4973444;28;20449;-77
2021/09/18 01:58:42;;;;;;;0.22;0.22;;;17.10;99.90;;;;;;4973935;28;20422;-78
2021/09/18 02:01:07;;;;;;;0.20;0.20;;;16.90;99.90;;;;;;4973795;28;20026;-78
2021/09/18 02:03:34;;;;;;;0.80;0.22;;;16.80;99.90;;;;;;4977170;28;20058;-78
2021/09/18 02:06:00;;;;;;;0.10;0.10;;;16.70;99.90;;;;;;4977347;28;20110;-78
2021/09/18 02:08:26;;;;;;;0.20;0.20;;;16.60;99.90;;;;;;4975258;28;20118;-78
2021/09/18 02:10:53;;;;;;;0.32;0.20;;;16.50;99.90;;;;;;4958265;28;20479;-78
2021/09/18 02:13:20;;;;;;;0.82;0.52;;;16.50;99.90;;;;;;4957910;28;20566;-78
2021/09/18 02:15:45;;;;;;;0.10;0.10;;;16.50;99.90;;;;;;4957679;29;20542;-78
2021/09/18 02:18:12;;;;;;;1.35;0.52;;;16.50;99.90;;;;;;4957734;29;20036;-77
2021/09/18 02:20:38;;;;;;;0.30;0.30;;;16.50;99.90;;;;;;4957654;29;20455;-78
2021/09/18 02:23:05;;;;;;;0.00;0.00;;;16.50;99.90;;;;;;4957468;28;20030;-77
2021/09/18 02:25:31;;;;;;;0.00;0.00;;;16.60;99.90;;;;;;4957575;29;20027;-78
2021/09/18 02:27:57;;;;;;;0.00;0.00;;;16.60;99.90;;;;;;4956337;28;20027;-78
2021/09/18 02:30:25;;;;;;;1.00;0.88;;;16.60;99.90;;;;;;4957468;29;20098;-78
2021/09/18 02:32:52;;;;;;;0.45;0.28;;;16.60;99.90;;;;;;4957287;29;20107;-78
2021/09/18 02:35:21;;;;;;;0.47;0.32;;;16.70;99.90;;;;;;4957318;28;20058;-78
2021/09/18 02:37:49;;;;;;;0.20;0.10;;;16.70;99.90;;;;;;4957355;28;20051;-78
2021/09/18 02:40:16;;;;;;;0.05;0.05;;;16.60;99.90;;;;;;4957514;28;20078;-78
2021/09/18 02:42:44;;;;;;;0.30;0.08;;;16.60;99.90;;;;;;4957787;28;20360;-78
2021/09/18 02:45:10;;;;;;;0.00;0.00;;;16.60;99.90;;;;;;4956970;28;20086;-78
2021/09/18 02:47:36;;;;;;;0.00;0.00;;;16.60;99.90;;;;;;4955670;29;20241;-78
2021/09/18 02:50:04;;;;;;;0.68;0.35;;;16.70;99.90;;;;;;4957195;28;20085;-78
2021/09/18 02:52:30;;;;;;;0.00;0.00;;;16.60;99.90;;;;;;4957230;28;20113;-78
2021/09/18 02:54:55;;;;;;;1.77;0.52;;;16.70;99.90;;;;;;4957152;29;20518;-78
2021/09/18 02:57:21;;;;;;;0.10;0.10;;;16.70;99.90;;;;;;4957073;28;20035;-78
2021/09/18 02:59:46;;;;;;;0.45;0.20;;;16.70;99.90;;;;;;4956600;28;20051;-78
2021/09/18 03:02:12;;;;;;;0.00;0.00;;;16.70;99.90;;;;;;4956988;28;20082;-77
2021/09/18 03:04:38;;;;;;;0.38;0.38;;;16.70;99.90;;;;;;4956796;29;20031;-78
2021/09/18 03:07:04;;;;;;;0.25;0.25;;;16.70;99.90;;;;;;4955001;29;20031;-78
2021/09/18 03:09:30;;;;;;;0.30;0.10;;;16.80;99.90;;;;;;4956871;28;20066;-78
2021/09/18 03:11:56;;;;;;;0.90;0.77;;;16.80;99.90;;;;;;4956979;29;20051;-78
2021/09/18 03:14:21;;;;;;;0.10;0.10;;;16.90;99.90;;;;;;4956443;28;20042;-77
2021/09/18 03:16:47;;;;;;;2.30;0.38;;;16.90;99.90;;;;;;4956885;29;20035;-78
2021/09/18 03:19:13;;;;;;;0.00;0.00;;;16.80;99.90;;;;;;4956820;28;20051;-78
2021/09/18 03:21:38;;;;;;;0.13;0.13;;;16.80;99.90;;;;;;4956653;28;20433;-78
2021/09/18 03:24:05;;;;;;;0.70;0.20;;;16.90;99.90;;;;;;4956308;29;20024;-78
2021/09/18 03:26:30;;;;;;;0.30;0.10;;;16.90;99.90;;;;;;4956273;29;20031;-78
2021/09/18 03:28:56;;;;;;;0.47;0.47;;;16.90;99.90;;;;;;4956309;28;20019;-78
2021/09/18 03:31:22;;;;;;;0.25;0.25;;;16.90;99.90;;;;;;4957700;28;20098;-77
2021/09/18 03:33:47;;;;;;;0.30;0.30;;;16.90;99.90;;;;;;4975846;28;20027;-78
2021/09/18 03:36:13;;;;;;;0.73;0.73;;;16.90;99.90;;;;;;4975732;28;20453;-78
2021/09/18 03:38:39;;;;;;;0.00;0.00;;;16.90;99.90;;;;;;4975445;28;20438;-78
2021/09/18 03:41:04;;;;;;;0.30;0.30;;;16.90;99.90;;;;;;4975548;28;20504;-77
2021/09/18 03:43:30;;;;;;;0.50;0.28;;;16.90;99.90;;;;;;4975965;28;20023;-78
2021/09/18 03:45:56;;;;;;;0.20;0.20;;;16.90;99.90;;;;;;4974178;28;20529;-78
2021/09/18 03:48:23;;;;;;;0.80;0.20;;;16.90;99.90;;;;;;4974708;28;20035;-77
2021/09/18 03:50:49;;;;;;;0.10;0.10;;;16.90;99.90;;;;;;4973608;28;20042;-78
2021/09/18 03:53:15;;;;;;;0.47;0.43;;;16.90;99.90;;;;;;4974020;28;20030;-78
2021/09/18 03:55:41;;;;;;;0.28;0.28;;;16.80;99.90;;;;;;4975492;28;20027;-78
2021/09/18 03:58:06;;;;;;;0.38;0.25;;;16.80;99.90;;;;;;4975231;28;20522;-78
2021/09/18 04:00:32;;;;;;;0.25;0.25;;;16.80;99.90;;;;;;4973985;28;20453;-78
2021/09/18 04:02:58;;;;;;;0.10;0.10;;;16.70;99.90;;;;;;4974768;28;20482;-78
2021/09/18 04:05:23;;;;;;;0.20;0.20;;;16.70;99.90;;;;;;4974905;28;20026;-78
2021/09/18 04:07:49;;;;;;;0.77;0.30;;;16.70;99.90;;;;;;4974028;28;20034;-78
2021/09/18 04:10:15;;;;;;;0.52;0.17;;;16.80;99.90;;;;;;4969618;28;20031;-78
2021/09/18 04:12:40;;;;;;;0.00;0.00;;;16.70;99.90;;;;;;4955598;29;20038;-78
2021/09/18 04:15:07;;;;;;;0.10;0.10;;;16.70;99.90;;;;;;4978666;28;20034;-78
2021/09/18 04:17:32;;;;;;;0.28;0.22;;;16.70;99.90;;;;;;4994466;28;20390;-78
2021/09/18 04:19:58;;;;;;;1.88;0.63;;;16.70;99.90;;;;;;4994378;28;20030;-78
2021/09/18 04:22:24;;;;;;;0.28;0.17;;;16.70;99.90;;;;;;4992851;28;20398;-78
2021/09/18 04:24:50;;;;;;;0.15;0.15;;;16.70;99.90;;;;;;4991789;28;20026;-78
2021/09/18 04:27:16;;;;;;;2.60;0.20;;;16.70;99.90;;;;;;4994058;28;20037;-78
2021/09/18 04:29:41;;;;;;;0.50;0.25;;;16.70;99.90;;;;;;4994073;28;20030;-78
2021/09/18 04:32:07;;;;;;;0.45;0.40;;;16.70;99.90;;;;;;4994013;28;20053;-78
2021/09/18 04:34:33;;;;;;;0.08;0.08;;;16.70;99.90;;;;;;4993805;28;20058;-78
2021/09/18 04:36:59;;;;;;;0.08;0.08;;;16.80;99.90;;;;;;4992724;28;20033;-78
2021/09/18 04:39:25;;;;;;;16.58;0.43;;;16.80;99.90;;;;;;4993851;28;20105;-78
2021/09/18 04:41:51;;;;;;;0.40;0.40;;;16.80;99.90;;;;;;4994011;28;20030;-78
2021/09/18 04:44:16;;;;;;;0.03;0.03;;;16.80;99.90;;;;;;4993673;28;20081;-78
2021/09/18 04:46:42;;;;;;;0.28;0.28;;;16.80;99.90;;;;;;4993731;28;20100;-78
2021/09/18 04:49:11;;;;;;;0.20;0.13;;;16.80;99.90;;;;;;4992743;28;20035;-78
2021/09/18 04:51:38;;;;;;;0.52;0.15;;;16.80;99.90;;;;;;4993566;28;20417;-78
2021/09/18 04:54:03;;;;;;;0.55;0.55;;;16.80;99.90;;;;;;4993707;28;20101;-78
2021/09/18 04:56:29;;;;;;;0.60;0.60;;;16.90;99.90;;;;;;4993479;28;20108;-78
2021/09/18 04:58:55;;;;;;;0.10;0.10;;;16.90;99.90;;;;;;4993566;28;20026;-78
2021/09/18 05:01:20;;;;;;;0.28;0.28;;;16.80;99.90;;;;;;4994013;28;20066;-78
2021/09/18 05:03:46;;;;;;;0.50;0.40;;;16.80;99.90;;;;;;4994093;28;20026;-78
2021/09/18 05:06:12;;;;;;;0.20;0.20;;;16.80;99.90;;;;;;4993610;28;20413;-78
2021/09/18 05:08:38;;;;;;;0.00;0.00;;;16.90;99.90;;;;;;4991144;28;20030;-78
2021/09/18 05:11:04;;;;;;;0.25;0.20;;;16.90;99.90;;;;;;4974515;28;20466;-77
2021/09/18 05:13:29;;;;;;;0.55;0.55;;;16.90;99.90;;;;;;4974232;28;20478;-78
2021/09/18 05:15:55;;;;;;;0.93;0.65;;;17.00;99.90;;;;;;4972626;28;20031;-78
2021/09/18 05:18:20;;;;;;;0.45;0.10;;;17.00;99.90;;;;;;4973801;28;20122;-78
2021/09/18 05:20:46;;;;;;;3.75;1.25;;;17.00;99.90;;;;;;4973866;28;20023;-78
2021/09/18 05:23:12;;;;;;;0.55;0.50;;;17.00;99.90;;;;;;4972610;28;20030;-78
2021/09/18 05:25:37;;;;;;;0.10;0.10;;;17.10;99.90;;;;;;4973980;28;20034;-78
2021/09/18 05:28:03;;;;;;;0.13;0.10;;;17.10;99.90;;;;;;4972824;28;20483;-77
2021/09/18 05:30:29;;;;;;;0.38;0.38;;;17.10;99.90;;;;;;4973973;28;20066;-78
2021/09/18 05:32:54;;;;;;;0.40;0.05;;;17.20;99.90;;;;;;4973848;28;20027;-78
2021/09/18 05:35:20;;;;;;;0.30;0.30;;;17.20;99.90;;;;;;4973878;28;20124;-78
2021/09/18 05:37:46;;;;;;;0.45;0.38;;;17.20;99.90;;;;;;4977850;28;20151;-78
2021/09/18 05:40:12;;;;;;;0.13;0.13;;;17.20;99.90;;;;;;4977826;28;20027;-78
2021/09/18 05:42:38;;;;;;;0.03;0.03;;;17.20;99.90;;;;;;4976773;28;20034;-78
2021/09/18 05:45:08;;;;;;;0.00;0.00;;;17.20;99.90;;;;;;4977774;28;20061;-78
2021/09/18 05:47:33;;;;;;;0.00;0.00;;;17.30;99.90;;;;;;4977714;28;20102;-78
2021/09/18 05:49:59;;;;;;;0.00;0.00;;;17.50;99.90;;;;;;4975799;28;20455;-78
2021/09/18 05:52:25;;;;;;;1.65;0.63;;;17.60;99.90;;;;;;4977708;28;20023;-78
2021/09/18 05:54:51;;;;;;;1.02;0.65;;;17.70;99.90;;;;;;4977501;28;20038;-77
2021/09/18 05:57:17;;;;;;;0.43;0.43;;;17.80;99.90;;;;;;4977518;28;20110;-79
2021/09/18 05:59:42;;;;;;;0.63;0.52;;;17.80;99.90;;;;;;4977300;28;20137;-78
2021/09/18 06:02:08;;;;;;;3.83;0.95;;;17.80;99.90;;;;;;4977157;28;20026;-78
2021/09/18 06:04:33;;;;;;;0.35;0.35;;;17.80;99.90;;;;;;4976164;28;20027;-78
2021/09/18 06:06:59;;;;;;;0.10;0.10;;;17.70;99.90;;;;;;4977417;28;20022;-77
2021/09/18 06:09:25;;;;;;;0.00;0.00;;;17.70;99.90;;;;;;4977152;28;20026;-78
2021/09/18 06:11:51;;;;;;;0.13;0.13;;;17.70;99.90;;;;;;4976058;28;20445;-78
2021/09/18 06:14:16;;;;;;;0.10;0.10;;;17.70;99.90;;;;;;4976831;28;20525;-78
2021/09/18 06:16:42;;;;;;;0.20;0.20;;;17.70;99.90;;;;;;4976975;28;20026;-78
2021/09/18 06:19:07;;;;;;;0.32;0.30;;;17.80;99.90;;;;;;4976653;28;20062;-78
2021/09/18 06:21:33;;;;;;;0.10;0.10;;;17.80;99.90;;;;;;4977279;28;20047;-78
2021/09/18 06:23:59;;;;;;;0.15;0.15;;;17.90;99.90;;;;;;4975778;28;20027;-78
2021/09/18 06:26:24;;;;;;;0.38;0.38;;;17.90;99.90;;;;;;4976820;28;20023;-78
2021/09/18 06:28:50;;;;;;;0.45;0.32;;;18.00;99.90;;;;;;4976789;28;20035;-78
2021/09/18 06:31:16;;;;;;;0.10;0.00;;;18.00;99.90;;;;;;4976611;28;20025;-78
2021/09/18 06:33:41;;;;;;;0.00;0.00;;;18.00;99.90;;;;;;4977102;28;20074;-78
2021/09/18 06:36:07;;;;;;;2.25;0.70;;;17.90;99.90;;;;;;4976686;28;20054;-78
2021/09/18 06:38:33;;;;;;;0.60;0.43;;;18.00;99.90;;;;;;4976740;28;20034;-78
2021/09/18 06:40:58;;;;;;;0.40;0.40;;;17.90;99.90;;;;;;4977026;28;20054;-78
2021/09/18 06:43:25;;;;;;;0.55;0.52;;;17.90;99.90;;;;;;4976555;28;20034;-78
2021/09/18 06:45:51;;;;;;;0.00;0.00;;;18.00;99.90;;;;;;4976606;28;20077;-78
2021/09/18 06:48:17;;;;;;;0.40;0.40;;;18.00;99.90;;;;;;4974712;28;20026;-78
2021/09/18 06:50:43;;;;;;;0.10;0.10;;;17.90;99.90;;;;;;4976176;28;20058;-79
2021/09/18 06:53:09;;;;;;;0.10;0.10;;;17.90;99.90;;;;;;4976354;28;20077;-78
2021/09/18 06:55:35;;;;;;;0.93;0.17;;;17.80;99.90;;;;;;4976437;28;20438;-78
2021/09/18 06:58:02;;;;;;;0.98;0.30;;;17.80;99.90;;;;;;4976145;28;20062;-78
2021/09/18 07:00:28;;;;;;;0.00;0.00;;;17.80;99.90;;;;;;4975167;28;20097;-77
2021/09/18 07:02:54;;;;;;;0.40;0.30;;;17.80;99.90;;;;;;4976252;28;20030;-77
2021/09/18 07:05:20;;;;;;;0.20;0.20;;;17.70;99.90;;;;;;4975977;28;20023;-78
2021/09/18 07:07:46;;;;;;;1.17;0.47;;;17.80;99.90;;;;;;4976206;28;20037;-78
2021/09/18 07:10:13;;;;;;;0.10;0.10;;;17.80;99.90;;;;;;4973664;28;20453;-78
2021/09/18 07:12:39;;;;;;;0.00;0.00;;;17.70;99.90;;;;;;4974857;28;20491;-78
2021/09/18 07:15:06;;;;;;;0.00;0.00;;;17.80;99.90;;;;;;4975969;28;20039;-78
2021/09/18 07:17:31;;;;;;;0.20;0.20;;;17.70;99.90;;;;;;4975808;28;20439;-77
2021/09/18 07:19:58;;;;;;;4.20;0.45;;;17.80;99.90;;;;;;4974697;28;20109;-78
2021/09/18 07:22:27;;;;;;;4.38;0.82;;;17.80;99.90;;;;;;4975859;28;20019;-78
2021/09/18 07:24:53;;;;;;;0.22;0.22;;;17.90;99.90;;;;;;4975897;28;20022;-78
2021/09/18 07:27:20;;;;;;;0.05;0.05;;;18.20;99.90;;;;;;4975560;28;20054;-78
2021/09/18 07:29:46;;;;;;;0.75;0.40;;;18.50;99.90;;;;;;4975942;28;20026;-78
2021/09/18 07:32:13;;;;;;;0.00;0.00;;;18.70;99.90;;;;;;4975711;28;20510;-78
2021/09/18 07:34:39;;;;;;;0.20;0.20;;;18.80;99.90;;;;;;4975419;28;20030;-78
2021/09/18 07:37:05;;;;;;;0.10;0.10;;;19.10;99.90;;;;;;4975588;28;20035;-77
2021/09/18 07:39:31;;;;;;;7.32;0.93;;;19.30;99.90;;;;;;4975376;28;20393;-78
2021/09/18 07:41:57;;;;;;;0.00;0.00;;;19.30;99.90;;;;;;4975704;28;20030;-78
2021/09/18 07:44:23;;;;;;;0.00;0.00;;;19.30;99.90;;;;;;4975392;28;20050;-78
2021/09/18 07:46:49;;;;;;;0.10;0.10;;;19.40;99.90;;;;;;4975228;28;20506;-78
2021/09/18 07:49:16;;;;;;;0.00;0.00;;;19.70;99.90;;;;;;4975481;28;20031;-77
2021/09/18 07:51:43;;;;;;;1.90;0.47;;;19.80;99.90;;;;;;4974104;28;20045;-77
2021/09/18 07:54:08;;;;;;;0.73;0.47;;;20.70;99.90;;;;;;4975152;28;20382;-77
2021/09/18 07:56:34;;;;;;;1.08;0.22;;;20.60;99.90;;;;;;4975105;28;20084;-77
2021/09/18 07:59:01;;;;;;;0.00;0.00;;;20.20;99.90;;;;;;4975600;28;20023;-76
2021/09/18 08:01:30;;;;;;;0.00;0.00;;;19.80;99.90;;;;;;4987569;28;20375;-77
2021/09/18 08:03:59;;;;;;;4.57;0.85;;;19.90;99.90;;;;;;4989676;28;20078;-76
2021/09/18 08:06:26;;;;;;;0.70;0.38;;;20.20;99.90;;;;;;4989824;28;20019;-78
2021/09/18 08:08:52;;;;;;;2.03;0.15;;;20.50;99.90;;;;;;4988756;28;20510;-77
2021/09/18 08:11:19;;;;;;;7.82;0.17;;;20.50;99.90;;;;;;4977274;28;20045;-77
2021/09/18 08:13:46;;;;;;;1.45;0.55;;;20.30;99.90;;;;;;4980757;28;20041;-76
2021/09/18 08:16:12;;;;;;;0.55;0.20;;;20.40;99.90;;;;;;4981530;28;20031;-77
2021/09/18 08:18:38;;;;;;;0.00;0.00;;;20.90;99.90;;;;;;4985233;28;20114;-77
2021/09/18 08:21:04;;;;;;;1.08;0.20;;;20.50;99.90;;;;;;4986364;28;20015;-77
2021/09/18 08:23:30;;;;;;;7.30;0.52;;;20.20;99.90;;;;;;4977783;28;20029;-76
2021/09/18 08:25:56;;;;;;;8.52;0.80;;;20.00;99.90;;;;;;4980835;28;20441;-75
2021/09/18 08:28:21;;;;;;;0.00;0.00;;;19.80;99.90;;;;;;4984160;28;20098;-77
2021/09/18 08:30:47;;;;;;;0.30;0.30;;;19.70;99.90;;;;;;4984363;28;20031;-76
2021/09/18 08:33:13;;;;;;;0.03;0.03;;;19.70;99.90;;;;;;4977677;28;20026;-77
2021/09/18 08:35:38;;;;;;;0.10;0.10;;;19.70;99.90;;;;;;4974739;28;20101;-77
2021/09/18 08:38:04;;;;;;;7.25;0.47;;;19.60;99.90;;;;;;4972862;28;20042;-77
2021/09/18 08:40:35;;;;;;;1.35;0.40;;;19.50;99.90;;;;;;4974518;28;20056;-77
2021/09/18 08:43:01;;;;;;;2.83;0.98;;;19.50;99.90;;;;;;4975014;28;20026;-77
2021/09/18 08:45:27;;;;;;;4.47;0.20;;;19.50;99.90;;;;;;4974504;28;20055;-77
2021/09/18 08:47:53;;;;;;;0.40;0.28;;;19.60;99.90;;;;;;4974585;28;20037;-77
2021/09/18 08:50:22;;;;;;;4.85;0.32;;;19.60;99.90;;;;;;4973965;28;20109;-77
2021/09/18 08:52:48;;;;;;;0.00;0.00;;;19.60;99.90;;;;;;4972299;28;20122;-76
2021/09/18 08:55:15;;;;;;;0.00;0.00;;;19.70;99.90;;;;;;4974338;28;20070;-77
2021/09/18 08:57:42;;;;;;;0.15;0.15;;;19.80;99.90;;;;;;4974364;28;20031;-77
2021/09/18 09:00:28;;;;;;;0.20;0.20;;;19.90;99.90;;;;;;4974139;28;20034;-77
2021/09/18 09:02:54;;;;;;;0.73;0.43;;;20.10;99.90;;;;;;4974023;28;20042;-77
2021/09/18 09:05:26;;;;;;;0.00;0.00;;;20.30;99.90;;;;;;4973907;28;20030;-76
2021/09/18 09:08:04;;;;;;;0.38;0.38;;;20.10;99.90;;;;;;4974138;28;20027;-77
2021/09/18 09:10:29;;;;;;;0.50;0.38;;;20.20;99.90;;;;;;4973495;28;20042;-77
2021/09/18 09:13:10;;;;;;;0.45;0.32;;;20.40;99.90;;;;;;4974315;28;20027;-77
2021/09/18 09:15:37;;;;;;;0.22;0.22;;;20.30;99.90;;;;;;4973916;28;20375;-77
2021/09/18 09:18:26;;;;;;;0.20;0.13;;;20.20;99.90;;;;;;4973738;28;20031;-77
2021/09/18 09:21:10;;;;;;;0.00;0.00;;;20.30;99.90;;;;;;4973869;28;20078;-77
2021/09/18 09:23:36;;;;;;;2.60;0.52;;;20.20;99.90;;;;;;4972507;28;20031;-77
2021/09/18 09:26:02;;;;;;;1.17;0.28;;;20.20;99.90;;;;;;4972629;28;20031;-77
2021/09/18 09:28:34;;;;;;;0.00;0.00;;;20.30;99.90;;;;;;4973961;28;20526;-76
2021/09/18 09:31:15;;;;;;;0.00;0.00;;;20.40;99.90;;;;;;4973797;28;20027;-77
2021/09/18 09:33:59;;;;;;;0.40;0.30;;;20.40;99.90;;;;;;4954863;28;20027;-77
2021/09/18 09:36:26;;;;;;;0.17;0.10;;;20.60;99.90;;;;;;4953923;28;20035;-77
2021/09/18 09:38:52;;;;;;;0.20;0.13;;;20.70;99.90;;;;;;4954242;28;20038;-76
2021/09/18 09:41:36;;;;;;;0.30;0.30;;;20.80;99.90;;;;;;4954196;29;20039;-76
2021/09/18 09:44:07;;;;;;;0.20;0.20;;;20.90;99.90;;;;;;4952965;28;20447;-77
2021/09/18 09:46:33;;;;;;;0.55;0.43;;;21.10;99.90;;;;;;4954485;28;20027;-77
2021/09/18 09:49:10;;;;;;;0.20;0.20;;;21.10;99.90;;;;;;4953087;29;20027;-76
2021/09/18 09:51:36;;;;;;;0.38;0.03;;;21.00;99.90;;;;;;4951867;29;20447;-76
2021/09/18 09:54:18;;;;;;;0.40;0.15;;;21.10;99.90;;;;;;4954087;28;20033;-77
2021/09/18 09:56:43;;;;;;;0.13;0.05;;;21.00;99.90;;;;;;4954311;28;20064;-77
2021/09/18 09:59:09;;;;;;;1.65;0.38;;;21.10;99.90;;;;;;4969138;28;20051;-76
2021/09/18 10:01:35;;;;;;;0.85;0.40;;;20.90;99.90;;;;;;4952984;29;20023;-77
2021/09/18 10:04:02;;;;;;;3.58;1.27;;;20.60;99.90;;;;;;4954402;28;20110;-76
2021/09/18 10:06:28;;;;;;;0.13;0.13;;;20.80;99.90;;;;;;4954349;28;20020;-76
2021/09/18 10:08:56;;;;;;;0.10;0.10;;;20.80;99.90;;;;;;4956405;28;20030;-76
2021/09/18 10:11:24;;;;;;;2.03;0.15;;;20.70;99.90;;;;;;4972941;28;20022;-76
2021/09/18 10:13:52;;;;;;;0.00;0.00;;;20.50;99.90;;;;;;4973389;28;20030;-77
2021/09/18 10:16:18;;;;;;;0.43;0.10;;;20.60;99.90;;;;;;4973296;28;20022;-76
2021/09/18 10:18:44;;;;;;;0.00;0.00;;;20.50;99.90;;;;;;4973868;28;20031;-77
2021/09/18 10:23:56;;;;;;;0.20;0.20;;;20.60;99.90;;;;;;4975765;28;20426;-76
2021/09/18 10:26:22;;;;;;;0.65;0.65;;;20.70;99.90;;;;;;4977063;28;20486;-77
2021/09/18 10:28:48;;;;;;;0.10;0.10;;;20.90;99.90;;;;;;4976890;28;20027;-77
2021/09/18 10:31:21;;;;;;;0.00;0.00;;;21.10;99.90;;;;;;4977009;28;20038;-77
2021/09/18 10:33:54;;;;;;;0.57;0.35;;;21.50;99.90;;;;;;4976655;28;20031;-77
2021/09/18 10:36:28;;;;;;;3.13;0.40;;;21.40;99.90;;;;;;4976633;28;20029;-75
2021/09/18 10:39:16;;;;;;;1.65;0.75;;;21.80;99.90;;;;;;4976818;28;20050;-76
2021/09/18 10:41:42;;;;;;;6.38;0.30;;;21.80;99.90;;;;;;4977046;28;20093;-76
2021/09/18 10:44:08;;;;;;;1.02;0.20;;;21.90;99.90;;;;;;4975096;28;20604;-76
2021/09/18 10:46:59;;;;;;;11.77;0.35;;;21.60;99.90;;;;;;4976433;28;20109;-76
2021/09/18 10:49:31;;;;;;;0.00;0.00;;;21.20;99.90;;;;;;4976385;28;20076;-76
2021/09/18 10:52:24;;;;;;;0.10;0.03;;;21.00;99.90;;;;;;4976121;28;20026;-77
2021/09/18 10:55:10;;;;;;;0.20;0.10;;;20.90;99.90;;;;;;4976354;28;20027;-76
2021/09/18 10:57:41;;;;;;;0.00;0.00;;;20.90;99.90;;;;;;4976355;28;20034;-76
2021/09/18 11:00:09;;;;;;;2.22;0.85;;;21.40;99.90;;;;;;4976174;28;20317;-76
2021/09/18 11:02:34;;;;;;;1.17;0.20;;;21.40;99.90;;;;;;4976222;28;20027;-77
2021/09/18 11:05:00;;;;;;;1.17;0.98;;;21.20;99.90;;;;;;4976253;28;20415;-76
2021/09/18 11:07:40;;;;;;;0.20;0.20;;;21.00;99.90;;;;;;4976479;28;20061;-76
2021/09/18 11:10:34;;;;;;;0.30;0.10;;;21.30;99.90;;;;;;4976045;28;20077;-76
2021/09/18 11:13:09;;;;;;;;;;;21.40;99.90;;;;;;4969111;28;20057;-76
2021/09/18 11:15:42;;;;;;;2.38;0.25;;;21.40;99.90;;;;;;4974526;28;19953;-77
2021/09/18 11:18:10;;;;;;;9.30;0.75;;;21.60;99.50;;;;;;4975982;28;20033;-76
2021/09/18 11:20:36;;;;;;;0.47;0.47;;;21.40;99.90;;;;;;4974783;28;20065;-76
2021/09/18 11:23:03;;;;;;;0.00;0.00;;;21.40;99.90;;;;;;4975827;28;20074;-76
2021/09/18 11:25:36;;;;;;;0.00;0.00;;;21.60;99.90;;;;;;4975823;28;20054;-76
2021/09/18 11:28:02;;;;;;;;;;;21.70;99.90;;;;;;4976149;28;20106;-77
2021/09/18 11:30:46;;;;;;;0.10;0.10;;;21.70;99.80;;;;;;4976115;28;19910;-76
2021/09/18 11:33:15;;;;;;;1.67;0.52;;;21.50;99.90;;;;;;4975723;28;20031;-76
2021/09/18 11:35:51;;;;;;;7.20;0.82;;;21.70;99.90;;;;;;4973815;28;20084;-76
2021/09/18 11:38:22;;;;;;;6.63;1.40;;;21.60;99.90;;;;;;4975334;28;20402;-76
2021/09/18 11:40:48;;;;;;;0.17;0.17;;;21.70;99.90;;;;;;4975640;28;20030;-76
2021/09/18 11:43:13;;;;;;;0.20;0.20;;;21.90;99.80;;;;;;4974579;28;20023;-76
2021/09/18 11:45:39;;;;;;;1.58;0.30;;;21.90;99.50;;;;;;4973896;28;20054;-76
2021/09/18 11:48:07;;;;;;;0.52;0.43;;;21.90;99.80;;;;;;4975468;28;20490;-76
2021/09/18 11:50:40;;;;;;;0.63;0.52;;;21.80;99.90;;;;;;4973304;28;20034;-76
2021/09/18 11:53:08;;;;;;;4.85;0.25;;;21.80;99.90;;;;;;4973830;28;20033;-77
2021/09/18 11:55:40;;;;;;;0.82;0.40;;;21.70;99.90;;;;;;4974902;28;20039;-77
2021/09/18 11:58:16;;;;;;;5.07;0.73;;;21.40;99.80;;;;;;4975367;28;20030;-76
2021/09/18 12:00:51;;;;;;;0.03;0.03;;;21.20;99.90;;;;;;4975304;28;20030;-76
2021/09/18 12:03:28;;;;;;;5.00;0.47;;;21.50;99.90;;;;;;4975304;28;20098;-76
2021/09/18 12:06:08;;;;;;;3.03;0.65;;;21.80;99.80;;;;;;4975152;28;20023;-75
2021/09/18 12:08:36;;;;;;;0.30;0.20;;;21.70;99.90;;;;;;4974709;28;20030;-76
2021/09/18 12:11:07;;;;;;;5.07;0.85;;;21.20;99.90;;;;;;4975083;28;20034;-75
2021/09/18 12:13:35;;;;;;;0.22;0.22;;;21.20;99.90;;;;;;4975341;28;20447;-76
2021/09/18 12:16:03;;;;;;;1.45;0.68;;;21.10;99.90;;;;;;4974436;28;20035;-75
2021/09/18 12:18:36;;;;;;;0.00;0.00;;;21.20;99.90;;;;;;4974498;28;20047;-77
2021/09/18 12:21:20;;;;;;;7.68;1.33;;;21.10;99.90;;;;;;4974815;28;20031;-76
2021/09/18 12:23:53;;;;;;;1.08;0.80;;;21.00;99.90;;;;;;4974804;28;20046;-76
2021/09/18 12:26:19;;;;;;;0.00;0.00;;;20.90;99.90;;;;;;4974758;28;20032;-76
2021/09/18 12:28:46;;;;;;;0.43;0.43;;;21.00;99.90;;;;;;4974741;28;20023;-76
2021/09/18 12:31:23;;;;;;;0.00;0.00;;;21.00;99.90;;;;;;4974793;28;20049;-76
2021/09/18 12:33:50;;;;;;;0.00;0.00;;;20.90;99.90;;;;;;4955262;28;20031;-76
2021/09/18 12:36:23;;;;;;;0.40;0.40;;;20.90;99.40;;;;;;4955387;28;20455;-76
2021/09/18 12:38:49;;;;;;;0.35;0.35;;;20.70;99.90;;;;;;4955141;28;20102;-76
2021/09/18 12:41:20;;;;;;;0.10;0.10;;;20.60;99.70;;;;;;4955179;28;20031;-78
2021/09/18 12:44:04;;;;;;;0.22;0.22;;;20.60;99.90;;;;;;4955319;29;20042;-76
2021/09/18 12:46:47;;;;;;;0.52;0.35;;;20.60;99.60;;;;;;4954599;28;20043;-76
2021/09/18 12:49:13;;;;;;;0.80;0.08;;;20.70;99.90;;;;;;4973936;28;20118;-76
2021/09/18 12:51:42;;;;;;;0.10;0.10;;;20.80;99.90;;;;;;4974401;28;20050;-76
2021/09/18 12:54:19;;;;;;;0.77;0.35;;;20.70;99.90;;;;;;4973049;28;20070;-76